sensor_id;sensor_type;location;lat;lon;timestamp;P1;durP1;ratioP1;P2;durP2;ratioP2
42632;SDS011;28261;53.304;-6.284;2022-10-18T00:00:42;8.43;;;3.00;;
42632;SDS011;28261;53.304;-6.284;2022-10-18T00:02:46;7.72;;;3.20;;
42632;SDS011;28261;53.304;-6.284;2022-10-18T00:04:49;11.07;;;3.15;;
42632;SDS011;28261;53.304;-6.284;2022-10-18T00:06:53;6.45;;;3.15;;
42632;SDS011;28261;53.304;-6.284;2022-10-18T00:08:56;9.35;;;3.42;;
42632;SDS011;28261;53.304;-6.284;2022-10-18T00:11:00;10.75;;;3.13;;
42632;SDS011;28261;53.304;-6.284;2022-10-18T00:13:04;10.15;;;3.00;;
42632;SDS011;28261;53.304;-6.284;2022-10-18T00:15:09;8.80;;;2.75;;
42632;SDS011;28261;53.304;-6.284;2022-10-18T00:17:13;8.80;;;3.20;;
42632;SDS011;28261;53.304;-6.284;2022-10-18T00:19:16;10.38;;;3.30;;
42632;SDS011;28261;53.304;-6.284;2022-10-18T00:21:21;8.43;;;3.05;;
42632;SDS011;28261;53.304;-6.284;2022-10-18T00:23:25;19.25;;;3.78;;
42632;SDS011;28261;53.304;-6.284;2022-10-18T00:25:30;8.77;;;3.70;;
42632;SDS011;28261;53.304;-6.284;2022-10-18T00:27:33;8.48;;;3.13;;
42632;SDS011;28261;53.304;-6.284;2022-10-18T00:29:36;11.77;;;3.50;;
42632;SDS011;28261;53.304;-6.284;2022-10-18T00:31:41;6.28;;;3.22;;
42632;SDS011;28261;53.304;-6.284;2022-10-18T00:33:46;12.60;;;3.95;;
42632;SDS011;28261;53.304;-6.284;2022-10-18T00:35:51;7.40;;;3.53;;
42632;SDS011;28261;53.304;-6.284;2022-10-18T00:37:55;13.27;;;3.47;;
42632;SDS011;28261;53.304;-6.284;2022-10-18T00:39:58;14.55;;;3.90;;
42632;SDS011;28261;53.304;-6.284;2022-10-18T00:42:02;10.70;;;3.97;;
42632;SDS011;28261;53.304;-6.284;2022-10-18T00:44:55;8.50;;;3.83;;
42632;SDS011;28261;53.304;-6.284;2022-10-18T00:46:49;9.40;;;3.50;;
42632;SDS011;28261;53.304;-6.284;2022-10-18T00:48:55;10.52;;;3.72;;
42632;SDS011;28261;53.304;-6.284;2022-10-18T00:51:00;13.35;;;3.42;;
42632;SDS011;28261;53.304;-6.284;2022-10-18T00:53:05;8.05;;;3.30;;
42632;SDS011;28261;53.304;-6.284;2022-10-18T00:55:12;6.63;;;3.30;;
42632;SDS011;28261;53.304;-6.284;2022-10-18T00:57:16;9.90;;;3.92;;
42632;SDS011;28261;53.304;-6.284;2022-10-18T00:59:20;9.05;;;3.42;;
42632;SDS011;28261;53.304;-6.284;2022-10-18T01:01:24;5.53;;;3.05;;
42632;SDS011;28261;53.304;-6.284;2022-10-18T01:03:30;7.32;;;3.35;;
42632;SDS011;28261;53.304;-6.284;2022-10-18T01:05:34;5.75;;;3.40;;
42632;SDS011;28261;53.304;-6.284;2022-10-18T01:10:21;10.60;;;3.15;;
42632;SDS011;28261;53.304;-6.284;2022-10-18T01:12:32;12.27;;;3.33;;
42632;SDS011;28261;53.304;-6.284;2022-10-18T01:14:45;9.38;;;3.28;;
42632;SDS011;28261;53.304;-6.284;2022-10-18T01:22:00;6.88;;;3.33;;
42632;SDS011;28261;53.304;-6.284;2022-10-18T01:24:29;7.10;;;3.22;;
42632;SDS011;28261;53.304;-6.284;2022-10-18T01:26:47;9.70;;;3.45;;
42632;SDS011;28261;53.304;-6.284;2022-10-18T01:29:10;9.93;;;2.80;;
42632;SDS011;28261;53.304;-6.284;2022-10-18T01:31:28;6.85;;;3.00;;
42632;SDS011;28261;53.304;-6.284;2022-10-18T01:33:36;8.73;;;3.05;;
42632;SDS011;28261;53.304;-6.284;2022-10-18T01:35:44;8.23;;;3.05;;
42632;SDS011;28261;53.304;-6.284;2022-10-18T01:37:53;11.05;;;2.92;;
42632;SDS011;28261;53.304;-6.284;2022-10-18T01:40:01;10.77;;;2.78;;
42632;SDS011;28261;53.304;-6.284;2022-10-18T01:42:09;9.45;;;3.20;;
42632;SDS011;28261;53.304;-6.284;2022-10-18T01:44:16;8.73;;;3.28;;
42632;SDS011;28261;53.304;-6.284;2022-10-18T01:46:23;7.45;;;3.17;;
42632;SDS011;28261;53.304;-6.284;2022-10-18T01:48:29;7.93;;;3.63;;
42632;SDS011;28261;53.304;-6.284;2022-10-18T01:50:34;11.52;;;3.17;;
42632;SDS011;28261;53.304;-6.284;2022-10-18T01:52:46;6.68;;;3.20;;
42632;SDS011;28261;53.304;-6.284;2022-10-18T01:54:50;8.38;;;2.95;;
42632;SDS011;28261;53.304;-6.284;2022-10-18T01:56:56;10.00;;;2.97;;
42632;SDS011;28261;53.304;-6.284;2022-10-18T02:01:34;6.45;;;2.75;;
42632;SDS011;28261;53.304;-6.284;2022-10-18T02:03:46;7.65;;;2.92;;
42632;SDS011;28261;53.304;-6.284;2022-10-18T02:05:55;8.60;;;2.97;;
42632;SDS011;28261;53.304;-6.284;2022-10-18T02:08:07;6.03;;;2.45;;
42632;SDS011;28261;53.304;-6.284;2022-10-18T02:10:24;8.32;;;3.00;;
42632;SDS011;28261;53.304;-6.284;2022-10-18T02:12:32;5.43;;;2.60;;
42632;SDS011;28261;53.304;-6.284;2022-10-18T02:14:39;8.38;;;2.80;;
42632;SDS011;28261;53.304;-6.284;2022-10-18T02:16:46;7.88;;;2.22;;
42632;SDS011;28261;53.304;-6.284;2022-10-18T02:18:56;10.00;;;2.40;;
42632;SDS011;28261;53.304;-6.284;2022-10-18T02:21:02;6.28;;;2.38;;
42632;SDS011;28261;53.304;-6.284;2022-10-18T02:23:10;8.23;;;2.88;;
42632;SDS011;28261;53.304;-6.284;2022-10-18T02:25:16;4.15;;;2.30;;
42632;SDS011;28261;53.304;-6.284;2022-10-18T02:27:23;6.28;;;2.17;;
42632;SDS011;28261;53.304;-6.284;2022-10-18T02:29:27;5.95;;;1.85;;
42632;SDS011;28261;53.304;-6.284;2022-10-18T02:31:32;7.47;;;2.33;;
42632;SDS011;28261;53.304;-6.284;2022-10-18T02:33:42;4.95;;;2.10;;
42632;SDS011;28261;53.304;-6.284;2022-10-18T02:35:53;4.30;;;2.20;;
42632;SDS011;28261;53.304;-6.284;2022-10-18T02:38:01;8.05;;;2.42;;
42632;SDS011;28261;53.304;-6.284;2022-10-18T02:40:08;5.25;;;2.17;;
42632;SDS011;28261;53.304;-6.284;2022-10-18T02:42:13;5.72;;;2.25;;
42632;SDS011;28261;53.304;-6.284;2022-10-18T02:44:17;6.53;;;2.58;;
42632;SDS011;28261;53.304;-6.284;2022-10-18T02:46:21;6.43;;;2.70;;
42632;SDS011;28261;53.304;-6.284;2022-10-18T02:48:25;10.50;;;2.65;;
42632;SDS011;28261;53.304;-6.284;2022-10-18T02:50:29;8.75;;;4.07;;
42632;SDS011;28261;53.304;-6.284;2022-10-18T02:52:34;13.00;;;5.85;;
42632;SDS011;28261;53.304;-6.284;2022-10-18T02:54:37;12.30;;;5.35;;
42632;SDS011;28261;53.304;-6.284;2022-10-18T02:56:41;17.52;;;5.53;;
42632;SDS011;28261;53.304;-6.284;2022-10-18T02:58:45;16.60;;;5.25;;
42632;SDS011;28261;53.304;-6.284;2022-10-18T03:00:48;13.20;;;5.40;;
42632;SDS011;28261;53.304;-6.284;2022-10-18T03:02:52;13.60;;;5.60;;
42632;SDS011;28261;53.304;-6.284;2022-10-18T03:04:56;15.27;;;6.07;;
42632;SDS011;28261;53.304;-6.284;2022-10-18T03:06:59;17.80;;;6.78;;
42632;SDS011;28261;53.304;-6.284;2022-10-18T03:09:04;19.48;;;6.82;;
42632;SDS011;28261;53.304;-6.284;2022-10-18T03:11:09;19.20;;;6.80;;
42632;SDS011;28261;53.304;-6.284;2022-10-18T03:13:12;13.32;;;6.22;;
42632;SDS011;28261;53.304;-6.284;2022-10-18T03:15:16;18.42;;;7.20;;
42632;SDS011;28261;53.304;-6.284;2022-10-18T03:17:20;18.73;;;7.22;;
42632;SDS011;28261;53.304;-6.284;2022-10-18T03:19:23;13.50;;;5.93;;
42632;SDS011;28261;53.304;-6.284;2022-10-18T03:21:27;13.38;;;5.47;;
42632;SDS011;28261;53.304;-6.284;2022-10-18T03:23:31;15.98;;;5.75;;
42632;SDS011;28261;53.304;-6.284;2022-10-18T03:25:36;8.70;;;4.28;;
42632;SDS011;28261;53.304;-6.284;2022-10-18T03:27:44;11.85;;;5.30;;
42632;SDS011;28261;53.304;-6.284;2022-10-18T03:29:48;15.65;;;6.32;;
42632;SDS011;28261;53.304;-6.284;2022-10-18T03:31:52;12.55;;;5.50;;
42632;SDS011;28261;53.304;-6.284;2022-10-18T03:33:55;14.38;;;4.97;;
42632;SDS011;28261;53.304;-6.284;2022-10-18T03:35:59;14.90;;;5.65;;
42632;SDS011;28261;53.304;-6.284;2022-10-18T03:38:02;10.93;;;4.55;;
42632;SDS011;28261;53.304;-6.284;2022-10-18T03:40:06;12.85;;;4.97;;
42632;SDS011;28261;53.304;-6.284;2022-10-18T03:42:12;13.38;;;5.03;;
42632;SDS011;28261;53.304;-6.284;2022-10-18T03:44:16;14.20;;;5.10;;
42632;SDS011;28261;53.304;-6.284;2022-10-18T03:46:20;14.70;;;5.13;;
42632;SDS011;28261;53.304;-6.284;2022-10-18T03:48:23;12.60;;;4.95;;
42632;SDS011;28261;53.304;-6.284;2022-10-18T03:50:27;12.73;;;4.40;;
42632;SDS011;28261;53.304;-6.284;2022-10-18T03:52:31;13.57;;;3.85;;
42632;SDS011;28261;53.304;-6.284;2022-10-18T03:54:35;12.65;;;4.32;;
42632;SDS011;28261;53.304;-6.284;2022-10-18T03:56:38;10.45;;;4.53;;
42632;SDS011;28261;53.304;-6.284;2022-10-18T03:58:43;12.43;;;5.00;;
42632;SDS011;28261;53.304;-6.284;2022-10-18T04:00:48;10.25;;;3.72;;
42632;SDS011;28261;53.304;-6.284;2022-10-18T04:02:52;13.05;;;4.32;;
42632;SDS011;28261;53.304;-6.284;2022-10-18T04:04:56;9.35;;;3.75;;
42632;SDS011;28261;53.304;-6.284;2022-10-18T04:07:00;10.05;;;4.55;;
42632;SDS011;28261;53.304;-6.284;2022-10-18T04:09:04;9.55;;;4.63;;
42632;SDS011;28261;53.304;-6.284;2022-10-18T04:11:10;13.55;;;6.65;;
42632;SDS011;28261;53.304;-6.284;2022-10-18T04:13:14;11.27;;;5.43;;
42632;SDS011;28261;53.304;-6.284;2022-10-18T04:15:19;11.48;;;5.18;;
42632;SDS011;28261;53.304;-6.284;2022-10-18T04:17:23;13.70;;;5.25;;
42632;SDS011;28261;53.304;-6.284;2022-10-18T04:19:26;13.63;;;5.53;;
42632;SDS011;28261;53.304;-6.284;2022-10-18T04:21:30;11.40;;;5.25;;
42632;SDS011;28261;53.304;-6.284;2022-10-18T04:23:34;12.35;;;4.80;;
42632;SDS011;28261;53.304;-6.284;2022-10-18T04:25:39;15.02;;;5.00;;
42632;SDS011;28261;53.304;-6.284;2022-10-18T04:27:44;12.30;;;5.05;;
42632;SDS011;28261;53.304;-6.284;2022-10-18T04:29:47;17.70;;;4.95;;
42632;SDS011;28261;53.304;-6.284;2022-10-18T04:31:52;8.73;;;5.20;;
42632;SDS011;28261;53.304;-6.284;2022-10-18T04:33:56;9.02;;;4.60;;
42632;SDS011;28261;53.304;-6.284;2022-10-18T04:36:00;11.75;;;4.45;;
42632;SDS011;28261;53.304;-6.284;2022-10-18T04:38:04;11.18;;;4.40;;
42632;SDS011;28261;53.304;-6.284;2022-10-18T04:40:08;13.10;;;3.97;;
42632;SDS011;28261;53.304;-6.284;2022-10-18T04:42:12;15.25;;;5.00;;
42632;SDS011;28261;53.304;-6.284;2022-10-18T04:44:16;14.27;;;4.45;;
42632;SDS011;28261;53.304;-6.284;2022-10-18T04:46:20;9.35;;;3.35;;
42632;SDS011;28261;53.304;-6.284;2022-10-18T04:48:25;12.63;;;4.15;;
42632;SDS011;28261;53.304;-6.284;2022-10-18T04:50:29;10.25;;;3.63;;
42632;SDS011;28261;53.304;-6.284;2022-10-18T04:52:33;8.60;;;3.60;;
42632;SDS011;28261;53.304;-6.284;2022-10-18T04:54:36;11.52;;;3.28;;
42632;SDS011;28261;53.304;-6.284;2022-10-18T04:56:40;7.60;;;2.50;;
42632;SDS011;28261;53.304;-6.284;2022-10-18T04:58:43;5.95;;;2.17;;
42632;SDS011;28261;53.304;-6.284;2022-10-18T05:00:47;6.20;;;2.05;;
42632;SDS011;28261;53.304;-6.284;2022-10-18T05:02:54;5.15;;;2.10;;
42632;SDS011;28261;53.304;-6.284;2022-10-18T05:05:00;6.88;;;2.63;;
42632;SDS011;28261;53.304;-6.284;2022-10-18T05:07:03;7.50;;;2.10;;
42632;SDS011;28261;53.304;-6.284;2022-10-18T05:09:07;5.43;;;2.33;;
42632;SDS011;28261;53.304;-6.284;2022-10-18T05:11:11;4.15;;;1.77;;
42632;SDS011;28261;53.304;-6.284;2022-10-18T05:13:15;6.22;;;1.83;;
42632;SDS011;28261;53.304;-6.284;2022-10-18T05:15:18;6.70;;;1.50;;
42632;SDS011;28261;53.304;-6.284;2022-10-18T05:17:23;8.45;;;1.70;;
42632;SDS011;28261;53.304;-6.284;2022-10-18T05:19:27;5.18;;;1.50;;
42632;SDS011;28261;53.304;-6.284;2022-10-18T05:21:32;6.05;;;1.38;;
42632;SDS011;28261;53.304;-6.284;2022-10-18T05:23:35;5.95;;;1.60;;
42632;SDS011;28261;53.304;-6.284;2022-10-18T05:25:39;3.60;;;1.30;;
42632;SDS011;28261;53.304;-6.284;2022-10-18T05:27:43;2.75;;;0.93;;
42632;SDS011;28261;53.304;-6.284;2022-10-18T05:29:47;7.03;;;1.00;;
42632;SDS011;28261;53.304;-6.284;2022-10-18T05:31:50;7.07;;;1.58;;
42632;SDS011;28261;53.304;-6.284;2022-10-18T05:33:54;6.22;;;1.48;;
42632;SDS011;28261;53.304;-6.284;2022-10-18T05:35:57;6.25;;;1.50;;
42632;SDS011;28261;53.304;-6.284;2022-10-18T05:38:03;6.85;;;1.42;;
42632;SDS011;28261;53.304;-6.284;2022-10-18T05:40:08;3.03;;;1.20;;
42632;SDS011;28261;53.304;-6.284;2022-10-18T05:42:12;9.80;;;1.20;;
42632;SDS011;28261;53.304;-6.284;2022-10-18T05:44:16;6.80;;;1.45;;
42632;SDS011;28261;53.304;-6.284;2022-10-18T05:46:19;10.45;;;1.45;;
42632;SDS011;28261;53.304;-6.284;2022-10-18T05:48:23;8.65;;;1.98;;
42632;SDS011;28261;53.304;-6.284;2022-10-18T05:50:27;6.97;;;1.50;;
42632;SDS011;28261;53.304;-6.284;2022-10-18T05:52:30;12.35;;;1.63;;
42632;SDS011;28261;53.304;-6.284;2022-10-18T05:54:36;5.50;;;1.52;;
42632;SDS011;28261;53.304;-6.284;2022-10-18T05:56:39;6.35;;;1.58;;
42632;SDS011;28261;53.304;-6.284;2022-10-18T05:58:43;8.35;;;1.77;;
42632;SDS011;28261;53.304;-6.284;2022-10-18T06:00:51;7.57;;;1.60;;
42632;SDS011;28261;53.304;-6.284;2022-10-18T06:02:55;10.38;;;2.05;;
42632;SDS011;28261;53.304;-6.284;2022-10-18T06:05:01;10.52;;;2.95;;
42632;SDS011;28261;53.304;-6.284;2022-10-18T06:07:06;10.27;;;2.83;;
42632;SDS011;28261;53.304;-6.284;2022-10-18T06:09:11;6.28;;;1.83;;
42632;SDS011;28261;53.304;-6.284;2022-10-18T06:11:16;12.45;;;1.60;;
42632;SDS011;28261;53.304;-6.284;2022-10-18T06:13:21;6.07;;;1.95;;
42632;SDS011;28261;53.304;-6.284;2022-10-18T06:15:25;6.93;;;1.63;;
42632;SDS011;28261;53.304;-6.284;2022-10-18T06:17:28;4.63;;;1.83;;
42632;SDS011;28261;53.304;-6.284;2022-10-18T06:19:33;8.73;;;1.73;;
42632;SDS011;28261;53.304;-6.284;2022-10-18T06:21:37;7.65;;;2.08;;
42632;SDS011;28261;53.304;-6.284;2022-10-18T06:23:40;12.95;;;3.08;;
42632;SDS011;28261;53.304;-6.284;2022-10-18T06:25:44;10.63;;;2.25;;
42632;SDS011;28261;53.304;-6.284;2022-10-18T06:27:49;17.80;;;1.73;;
42632;SDS011;28261;53.304;-6.284;2022-10-18T06:29:53;3.30;;;1.88;;
42632;SDS011;28261;53.304;-6.284;2022-10-18T06:31:56;13.35;;;2.22;;
42632;SDS011;28261;53.304;-6.284;2022-10-18T06:34:00;13.73;;;1.80;;
42632;SDS011;28261;53.304;-6.284;2022-10-18T06:36:05;4.05;;;1.92;;
42632;SDS011;28261;53.304;-6.284;2022-10-18T06:38:12;3.50;;;2.00;;
42632;SDS011;28261;53.304;-6.284;2022-10-18T06:40:15;14.93;;;4.10;;
42632;SDS011;28261;53.304;-6.284;2022-10-18T06:42:19;11.52;;;1.90;;
42632;SDS011;28261;53.304;-6.284;2022-10-18T06:44:24;4.57;;;1.85;;
42632;SDS011;28261;53.304;-6.284;2022-10-18T06:46:28;11.48;;;1.85;;
42632;SDS011;28261;53.304;-6.284;2022-10-18T06:48:32;5.88;;;1.95;;
42632;SDS011;28261;53.304;-6.284;2022-10-18T06:50:36;12.27;;;2.03;;
42632;SDS011;28261;53.304;-6.284;2022-10-18T06:52:39;7.55;;;1.85;;
42632;SDS011;28261;53.304;-6.284;2022-10-18T06:54:43;7.75;;;1.88;;
42632;SDS011;28261;53.304;-6.284;2022-10-18T06:56:47;14.02;;;2.30;;
42632;SDS011;28261;53.304;-6.284;2022-10-18T06:58:50;19.98;;;2.97;;
42632;SDS011;28261;53.304;-6.284;2022-10-18T07:00:56;7.43;;;2.63;;
42632;SDS011;28261;53.304;-6.284;2022-10-18T07:03:00;17.08;;;3.08;;
42632;SDS011;28261;53.304;-6.284;2022-10-18T07:05:04;11.90;;;2.83;;
42632;SDS011;28261;53.304;-6.284;2022-10-18T07:07:08;14.45;;;2.83;;
42632;SDS011;28261;53.304;-6.284;2022-10-18T07:09:12;13.80;;;3.38;;
42632;SDS011;28261;53.304;-6.284;2022-10-18T07:11:16;14.85;;;3.17;;
42632;SDS011;28261;53.304;-6.284;2022-10-18T07:13:22;12.43;;;4.55;;
42632;SDS011;28261;53.304;-6.284;2022-10-18T07:15:33;20.70;;;4.35;;
42632;SDS011;28261;53.304;-6.284;2022-10-18T07:17:40;18.65;;;3.83;;
42632;SDS011;28261;53.304;-6.284;2022-10-18T07:19:46;16.92;;;4.45;;
42632;SDS011;28261;53.304;-6.284;2022-10-18T07:21:50;11.77;;;4.18;;
42632;SDS011;28261;53.304;-6.284;2022-10-18T07:23:55;17.23;;;4.53;;
42632;SDS011;28261;53.304;-6.284;2022-10-18T07:25:59;19.23;;;4.70;;
42632;SDS011;28261;53.304;-6.284;2022-10-18T07:28:03;8.18;;;3.28;;
42632;SDS011;28261;53.304;-6.284;2022-10-18T07:30:09;18.80;;;3.85;;
42632;SDS011;28261;53.304;-6.284;2022-10-18T07:32:13;16.40;;;3.67;;
42632;SDS011;28261;53.304;-6.284;2022-10-18T07:34:18;7.82;;;3.42;;
42632;SDS011;28261;53.304;-6.284;2022-10-18T07:36:22;7.78;;;2.83;;
42632;SDS011;28261;53.304;-6.284;2022-10-18T07:38:26;16.27;;;4.95;;
42632;SDS011;28261;53.304;-6.284;2022-10-18T07:40:30;17.98;;;4.95;;
42632;SDS011;28261;53.304;-6.284;2022-10-18T07:42:33;8.88;;;3.88;;
42632;SDS011;28261;53.304;-6.284;2022-10-18T07:44:37;16.58;;;4.60;;
42632;SDS011;28261;53.304;-6.284;2022-10-18T07:46:41;21.50;;;4.18;;
42632;SDS011;28261;53.304;-6.284;2022-10-18T07:48:45;20.02;;;4.35;;
42632;SDS011;28261;53.304;-6.284;2022-10-18T07:50:50;9.98;;;4.30;;
42632;SDS011;28261;53.304;-6.284;2022-10-18T07:52:54;11.18;;;5.13;;
42632;SDS011;28261;53.304;-6.284;2022-10-18T07:54:58;16.30;;;4.82;;
42632;SDS011;28261;53.304;-6.284;2022-10-18T07:57:02;13.98;;;4.60;;
42632;SDS011;28261;53.304;-6.284;2022-10-18T07:59:07;13.52;;;4.70;;
42632;SDS011;28261;53.304;-6.284;2022-10-18T08:01:12;29.17;;;5.38;;
42632;SDS011;28261;53.304;-6.284;2022-10-18T08:03:16;20.30;;;5.63;;
42632;SDS011;28261;53.304;-6.284;2022-10-18T08:05:20;16.17;;;5.00;;
42632;SDS011;28261;53.304;-6.284;2022-10-18T08:07:25;16.25;;;6.03;;
42632;SDS011;28261;53.304;-6.284;2022-10-18T08:09:29;16.13;;;5.30;;
42632;SDS011;28261;53.304;-6.284;2022-10-18T08:11:33;11.80;;;5.90;;
42632;SDS011;28261;53.304;-6.284;2022-10-18T08:13:37;22.75;;;5.53;;
42632;SDS011;28261;53.304;-6.284;2022-10-18T08:15:41;18.15;;;4.97;;
42632;SDS011;28261;53.304;-6.284;2022-10-18T08:17:45;17.58;;;5.05;;
42632;SDS011;28261;53.304;-6.284;2022-10-18T08:19:49;15.70;;;5.07;;
42632;SDS011;28261;53.304;-6.284;2022-10-18T08:22:13;15.30;;;4.78;;
42632;SDS011;28261;53.304;-6.284;2022-10-18T08:24:17;21.65;;;5.55;;
42632;SDS011;28261;53.304;-6.284;2022-10-18T08:26:21;15.88;;;5.10;;
42632;SDS011;28261;53.304;-6.284;2022-10-18T08:28:25;25.10;;;5.68;;
42632;SDS011;28261;53.304;-6.284;2022-10-18T08:30:29;12.57;;;5.22;;
42632;SDS011;28261;53.304;-6.284;2022-10-18T08:32:33;12.65;;;5.13;;
42632;SDS011;28261;53.304;-6.284;2022-10-18T08:34:36;47.97;;;8.73;;
42632;SDS011;28261;53.304;-6.284;2022-10-18T08:36:40;18.77;;;5.30;;
42632;SDS011;28261;53.304;-6.284;2022-10-18T08:38:44;11.98;;;5.68;;
42632;SDS011;28261;53.304;-6.284;2022-10-18T08:40:51;18.55;;;5.18;;
42632;SDS011;28261;53.304;-6.284;2022-10-18T08:42:59;26.85;;;6.07;;
42632;SDS011;28261;53.304;-6.284;2022-10-18T08:45:07;25.13;;;6.07;;
42632;SDS011;28261;53.304;-6.284;2022-10-18T08:47:34;26.77;;;5.20;;
42632;SDS011;28261;53.304;-6.284;2022-10-18T08:49:40;18.67;;;4.93;;
42632;SDS011;28261;53.304;-6.284;2022-10-18T08:51:48;16.13;;;6.18;;
42632;SDS011;28261;53.304;-6.284;2022-10-18T08:53:55;21.38;;;6.00;;
42632;SDS011;28261;53.304;-6.284;2022-10-18T08:56:09;15.65;;;5.25;;
42632;SDS011;28261;53.304;-6.284;2022-10-18T08:58:16;31.20;;;6.40;;
42632;SDS011;28261;53.304;-6.284;2022-10-18T09:00:22;19.83;;;5.93;;
42632;SDS011;28261;53.304;-6.284;2022-10-18T09:02:31;17.35;;;5.18;;
42632;SDS011;28261;53.304;-6.284;2022-10-18T09:04:46;21.75;;;4.95;;
42632;SDS011;28261;53.304;-6.284;2022-10-18T09:07:01;24.77;;;4.72;;
42632;SDS011;28261;53.304;-6.284;2022-10-18T09:09:24;22.13;;;4.40;;
42632;SDS011;28261;53.304;-6.284;2022-10-18T09:11:39;21.35;;;5.07;;
42632;SDS011;28261;53.304;-6.284;2022-10-18T09:13:59;17.60;;;4.45;;
42632;SDS011;28261;53.304;-6.284;2022-10-18T09:16:24;15.73;;;4.40;;
42632;SDS011;28261;53.304;-6.284;2022-10-18T09:18:44;15.00;;;4.05;;
42632;SDS011;28261;53.304;-6.284;2022-10-18T09:20:58;15.07;;;4.10;;
42632;SDS011;28261;53.304;-6.284;2022-10-18T09:23:10;14.00;;;4.72;;
42632;SDS011;28261;53.304;-6.284;2022-10-18T09:25:21;16.15;;;3.53;;
42632;SDS011;28261;53.304;-6.284;2022-10-18T09:27:29;18.13;;;5.00;;
42632;SDS011;28261;53.304;-6.284;2022-10-18T09:29:46;16.15;;;4.70;;
42632;SDS011;28261;53.304;-6.284;2022-10-18T09:32:03;16.90;;;4.78;;
42632;SDS011;28261;53.304;-6.284;2022-10-18T09:34:21;16.20;;;4.20;;
42632;SDS011;28261;53.304;-6.284;2022-10-18T09:36:31;14.37;;;4.07;;
42632;SDS011;28261;53.304;-6.284;2022-10-18T09:38:41;17.17;;;3.15;;
42632;SDS011;28261;53.304;-6.284;2022-10-18T09:40:50;19.80;;;5.00;;
42632;SDS011;28261;53.304;-6.284;2022-10-18T09:43:00;16.33;;;3.63;;
42632;SDS011;28261;53.304;-6.284;2022-10-18T09:45:13;16.50;;;3.53;;
42632;SDS011;28261;53.304;-6.284;2022-10-18T09:47:25;12.88;;;3.47;;
42632;SDS011;28261;53.304;-6.284;2022-10-18T09:49:35;11.48;;;3.00;;
42632;SDS011;28261;53.304;-6.284;2022-10-18T09:51:44;14.75;;;2.90;;
42632;SDS011;28261;53.304;-6.284;2022-10-18T09:53:55;16.35;;;2.75;;
42632;SDS011;28261;53.304;-6.284;2022-10-18T09:56:07;17.83;;;2.80;;
42632;SDS011;28261;53.304;-6.284;2022-10-18T09:58:16;13.10;;;2.70;;
42632;SDS011;28261;53.304;-6.284;2022-10-18T10:00:23;14.52;;;2.63;;
42632;SDS011;28261;53.304;-6.284;2022-10-18T10:02:31;17.13;;;3.05;;
42632;SDS011;28261;53.304;-6.284;2022-10-18T10:04:35;12.48;;;2.78;;
42632;SDS011;28261;53.304;-6.284;2022-10-18T10:06:38;15.93;;;2.60;;
42632;SDS011;28261;53.304;-6.284;2022-10-18T10:08:58;14.18;;;2.67;;
42632;SDS011;28261;53.304;-6.284;2022-10-18T10:11:03;15.82;;;3.05;;
42632;SDS011;28261;53.304;-6.284;2022-10-18T10:13:13;24.33;;;4.65;;
42632;SDS011;28261;53.304;-6.284;2022-10-18T10:15:24;11.85;;;2.60;;
42632;SDS011;28261;53.304;-6.284;2022-10-18T10:17:35;10.40;;;2.80;;
42632;SDS011;28261;53.304;-6.284;2022-10-18T10:19:53;13.32;;;2.20;;
42632;SDS011;28261;53.304;-6.284;2022-10-18T10:22:04;9.80;;;2.33;;
42632;SDS011;28261;53.304;-6.284;2022-10-18T10:24:15;8.50;;;2.03;;
42632;SDS011;28261;53.304;-6.284;2022-10-18T10:26:31;13.98;;;2.20;;
42632;SDS011;28261;53.304;-6.284;2022-10-18T10:28:41;14.77;;;2.25;;
42632;SDS011;28261;53.304;-6.284;2022-10-18T10:30:47;10.27;;;2.33;;
42632;SDS011;28261;53.304;-6.284;2022-10-18T10:32:51;9.52;;;2.20;;
42632;SDS011;28261;53.304;-6.284;2022-10-18T10:34:56;11.57;;;2.20;;
42632;SDS011;28261;53.304;-6.284;2022-10-18T10:37:00;14.73;;;2.67;;
42632;SDS011;28261;53.304;-6.284;2022-10-18T10:39:06;8.20;;;2.42;;
42632;SDS011;28261;53.304;-6.284;2022-10-18T10:41:17;7.40;;;1.90;;
42632;SDS011;28261;53.304;-6.284;2022-10-18T10:43:23;15.60;;;2.17;;
42632;SDS011;28261;53.304;-6.284;2022-10-18T10:46:02;11.40;;;1.48;;
42632;SDS011;28261;53.304;-6.284;2022-10-18T10:48:13;16.77;;;2.95;;
42632;SDS011;28261;53.304;-6.284;2022-10-18T10:50:22;8.77;;;1.38;;
42632;SDS011;28261;53.304;-6.284;2022-10-18T10:52:27;23.58;;;3.08;;
42632;SDS011;28261;53.304;-6.284;2022-10-18T10:54:32;8.38;;;2.80;;
42632;SDS011;28261;53.304;-6.284;2022-10-18T10:56:49;12.40;;;1.60;;
42632;SDS011;28261;53.304;-6.284;2022-10-18T10:58:56;12.13;;;1.73;;
42632;SDS011;28261;53.304;-6.284;2022-10-18T11:01:19;11.45;;;1.88;;
42632;SDS011;28261;53.304;-6.284;2022-10-18T11:03:27;16.58;;;1.90;;
42632;SDS011;28261;53.304;-6.284;2022-10-18T11:05:41;18.80;;;2.30;;
42632;SDS011;28261;53.304;-6.284;2022-10-18T11:07:47;19.67;;;2.55;;
42632;SDS011;28261;53.304;-6.284;2022-10-18T11:09:56;15.73;;;1.83;;
42632;SDS011;28261;53.304;-6.284;2022-10-18T11:14:29;10.18;;;1.65;;
42632;SDS011;28261;53.304;-6.284;2022-10-18T11:16:40;14.20;;;1.80;;
42632;SDS011;28261;53.304;-6.284;2022-10-18T11:18:53;19.90;;;2.85;;
42632;SDS011;28261;53.304;-6.284;2022-10-18T11:21:00;14.60;;;1.95;;
42632;SDS011;28261;53.304;-6.284;2022-10-18T11:23:10;13.75;;;1.83;;
42632;SDS011;28261;53.304;-6.284;2022-10-18T11:25:15;10.40;;;1.65;;
42632;SDS011;28261;53.304;-6.284;2022-10-18T11:27:21;16.00;;;1.60;;
42632;SDS011;28261;53.304;-6.284;2022-10-18T11:29:32;10.18;;;1.70;;
42632;SDS011;28261;53.304;-6.284;2022-10-18T11:31:46;13.82;;;1.55;;
42632;SDS011;28261;53.304;-6.284;2022-10-18T11:34:01;16.33;;;3.15;;
42632;SDS011;28261;53.304;-6.284;2022-10-18T11:36:26;14.63;;;1.90;;
42632;SDS011;28261;53.304;-6.284;2022-10-18T11:38:39;12.45;;;1.75;;
42632;SDS011;28261;53.304;-6.284;2022-10-18T11:43:24;12.40;;;1.63;;
42632;SDS011;28261;53.304;-6.284;2022-10-18T11:45:56;11.73;;;1.23;;
42632;SDS011;28261;53.304;-6.284;2022-10-18T11:48:11;14.02;;;1.50;;
42632;SDS011;28261;53.304;-6.284;2022-10-18T11:50:29;9.77;;;1.10;;
42632;SDS011;28261;53.304;-6.284;2022-10-18T11:52:41;6.25;;;0.90;;
42632;SDS011;28261;53.304;-6.284;2022-10-18T11:55:01;11.32;;;1.63;;
42632;SDS011;28261;53.304;-6.284;2022-10-18T11:57:17;12.10;;;1.70;;
42632;SDS011;28261;53.304;-6.284;2022-10-18T11:59:35;11.35;;;1.50;;
42632;SDS011;28261;53.304;-6.284;2022-10-18T12:01:42;14.52;;;1.67;;
42632;SDS011;28261;53.304;-6.284;2022-10-18T12:04:00;8.10;;;1.27;;
42632;SDS011;28261;53.304;-6.284;2022-10-18T12:06:10;11.10;;;1.40;;
42632;SDS011;28261;53.304;-6.284;2022-10-18T12:08:19;10.35;;;1.52;;
42632;SDS011;28261;53.304;-6.284;2022-10-18T12:10:28;13.80;;;1.65;;
42632;SDS011;28261;53.304;-6.284;2022-10-18T12:12:56;9.50;;;1.23;;
42632;SDS011;28261;53.304;-6.284;2022-10-18T12:15:05;12.18;;;1.55;;
42632;SDS011;28261;53.304;-6.284;2022-10-18T12:17:18;10.48;;;1.45;;
42632;SDS011;28261;53.304;-6.284;2022-10-18T12:19:48;12.02;;;1.25;;
42632;SDS011;28261;53.304;-6.284;2022-10-18T12:21:57;17.42;;;1.48;;
42632;SDS011;28261;53.304;-6.284;2022-10-18T12:24:19;11.10;;;1.17;;
42632;SDS011;28261;53.304;-6.284;2022-10-18T12:26:26;17.23;;;1.27;;
42632;SDS011;28261;53.304;-6.284;2022-10-18T12:28:36;15.60;;;1.63;;
42632;SDS011;28261;53.304;-6.284;2022-10-18T12:30:50;10.20;;;1.08;;
42632;SDS011;28261;53.304;-6.284;2022-10-18T12:33:03;11.57;;;1.20;;
42632;SDS011;28261;53.304;-6.284;2022-10-18T12:35:30;12.70;;;1.35;;
42632;SDS011;28261;53.304;-6.284;2022-10-18T12:37:52;14.27;;;1.50;;
42632;SDS011;28261;53.304;-6.284;2022-10-18T12:40:09;16.17;;;1.60;;
42632;SDS011;28261;53.304;-6.284;2022-10-18T12:42:23;13.60;;;1.65;;
42632;SDS011;28261;53.304;-6.284;2022-10-18T12:44:30;14.73;;;1.52;;